Time;durP1;ratioP1;P1;durP2;ratioP2;P2;SDS_P1;SDS_P2;PMS_P1;PMS_P2;Temp;Humidity;BMP_temperature;BMP_pressure;BME280_temperature;BME280_humidity;BME280_pressure;Samples;Min_cycle;Max_cycle;Signal;HPM_P1;HPM_P2
2022/04/05 00:00:24;;;;;;;;;;;4.00;99.90;;;;;;4964960;28;20788;-77
2022/04/05 00:02:52;;;;;;;;;;;4.00;99.90;;;;;;4991151;28;19925;-77
2022/04/05 00:05:20;;;;;;;;;;;4.00;99.90;;;;;;4988155;28;19926;-77
2022/04/05 00:07:47;;;;;;;;;;;4.00;99.90;;;;;;4991233;28;19965;-76
2022/04/05 00:10:14;;;;;;;;;;;4.00;99.90;;;;;;4996645;28;19973;-76
2022/04/05 00:12:41;;;;;;;;;;;4.00;99.90;;;;;;4995038;28;19933;-77
2022/04/05 00:15:10;;;;;;;;;;;4.00;99.90;;;;;;4987585;28;19926;-77
2022/04/05 00:17:37;;;;;;;;;;;4.00;99.90;;;;;;4974239;28;19973;-77
2022/04/05 00:20:07;;;;;;;;;;;4.00;99.90;;;;;;4999881;28;19981;-76
2022/04/05 00:22:33;;;;;;;;;;;4.00;99.90;;;;;;4981421;28;19926;-76
2022/04/05 00:25:00;;;;;;;;;;;4.00;99.90;;;;;;4988989;28;19932;-76
2022/04/05 00:27:27;;;;;;;;;;;4.00;99.90;;;;;;4992835;28;19936;-76
2022/04/05 00:29:55;;;;;;;;;;;4.00;99.90;;;;;;4989607;28;19965;-77
2022/04/05 00:32:21;;;;;;;;;;;4.00;99.90;;;;;;4998940;28;21084;-76
2022/04/05 00:34:48;;;;;;;;;;;4.00;99.90;;;;;;4985503;28;19940;-76
2022/04/05 00:37:17;;;;;;;;;;;4.00;99.90;;;;;;4995307;28;20748;-76
2022/04/05 00:39:46;;;;;;;;;;;4.00;99.90;;;;;;4983081;28;19937;-77
2022/04/05 00:42:12;;;;;;;;;;;3.90;99.90;;;;;;4981078;28;19933;-76
2022/04/05 00:44:39;;;;;;;;;;;3.90;99.90;;;;;;4994001;28;19926;-77
2022/04/05 00:47:14;;;;;;;;;;;4.00;99.90;;;;;;4988064;28;20307;-76
2022/04/05 00:49:41;;;;;;;;;;;4.00;99.90;;;;;;4983052;28;19962;-77
2022/04/05 00:52:08;;;;;;;;;;;3.90;99.90;;;;;;4987267;28;19934;-77
2022/04/05 00:54:37;;;;;;;;;;;4.00;99.90;;;;;;4968992;23;19937;-82
2022/04/05 00:57:04;;;;;;;;;;;3.90;99.90;;;;;;4974466;28;19969;-80
2022/04/05 00:59:33;;;;;;;;;;;3.90;99.90;;;;;;4981522;28;19926;-80
2022/04/05 01:02:01;;;;;;;;;;;3.90;99.90;;;;;;4975794;28;20394;-80
2022/04/05 01:04:29;;;;;;;;;;;3.90;99.90;;;;;;4959047;28;19934;-82
2022/04/05 01:06:56;;;;;;;;;;;3.90;99.90;;;;;;4960877;28;19965;-82
2022/04/05 01:09:23;;;;;;;;;;;3.90;99.90;;;;;;4962057;28;20473;-79
2022/04/05 01:11:51;;;;;;;;;;;3.90;99.90;;;;;;4963782;28;19933;-80
2022/04/05 01:14:18;;;;;;;;;;;3.90;99.90;;;;;;4967575;28;19926;-79
2022/04/05 01:16:45;;;;;;;;;;;3.90;99.90;;;;;;4970070;28;19934;-79
2022/04/05 01:19:12;;;;;;;;;;;3.90;99.90;;;;;;4968099;28;20003;-80
2022/04/05 01:21:39;;;;;;;;;;;3.90;99.90;;;;;;4964440;28;19961;-83
2022/04/05 01:24:11;;;;;;;;;;;3.90;99.90;;;;;;4964139;28;19926;-79
2022/04/05 01:26:41;;;;;;;;;;;3.90;99.90;;;;;;4963329;28;19980;-81
2022/04/05 01:29:08;;;;;;;;;;;3.90;99.90;;;;;;4967457;28;20385;-79
2022/04/05 01:31:39;;;;;;;;;;;3.90;99.90;;;;;;4968633;28;19934;-79
2022/04/05 01:34:06;;;;;;;;;;;3.90;99.90;;;;;;4963937;28;20516;-80
2022/04/05 01:36:33;;;;;;;;;;;3.90;99.90;;;;;;4966375;28;20342;-79
2022/04/05 01:39:00;;;;;;;;;;;3.90;99.90;;;;;;4964074;28;19941;-80
2022/04/05 01:41:28;;;;;;;;;;;3.90;99.90;;;;;;4971106;28;19940;-79
2022/04/05 01:43:55;;;;;;;;;;;3.80;99.90;;;;;;4961819;28;19962;-78
2022/04/05 01:46:22;;;;;;;;;;;3.90;99.90;;;;;;4966588;28;19926;-79
2022/04/05 01:48:48;;;;;;;;;;;3.90;99.90;;;;;;4967731;28;19930;-79
2022/04/05 01:51:15;;;;;;;;;;;3.80;99.90;;;;;;4956570;28;19938;-79
2022/04/05 01:53:42;;;;;;;;;;;3.80;99.90;;;;;;4963174;28;19957;-81
2022/04/05 01:56:09;;;;;;;;;;;3.80;99.90;;;;;;4964683;28;20347;-79
2022/04/05 01:58:38;;;;;;;;;;;3.80;99.90;;;;;;4961804;28;19953;-79
2022/04/05 02:01:04;;;;;;;;;;;3.80;99.90;;;;;;4957582;28;20034;-81
2022/04/05 02:03:31;;;;;;;;;;;3.80;99.90;;;;;;5005728;28;19938;-80
2022/04/05 02:06:01;;;;;;;;;;;3.80;99.90;;;;;;4965435;28;19927;-80
2022/04/05 02:08:29;;;;;;;;;;;3.80;99.90;;;;;;4962277;28;19926;-82
2022/04/05 02:10:56;;;;;;;;;;;3.90;99.90;;;;;;4984958;28;19926;-79
2022/04/05 02:13:25;;;;;;;;;;;3.80;99.90;;;;;;4965370;28;19926;-80
2022/04/05 02:15:57;;;;;;;;;;;3.80;99.90;;;;;;4962287;28;20325;-79
2022/04/05 02:18:27;;;;;;;;;;;3.80;99.90;;;;;;4968239;28;19927;-79
2022/04/05 02:20:55;;;;;;;;;;;3.80;99.90;;;;;;4989609;28;19926;-80
2022/04/05 02:23:22;;;;;;;;;;;3.80;99.90;;;;;;4988961;28;19926;-79
2022/04/05 02:25:57;;;;;;;;;;;3.80;99.90;;;;;;4965777;28;20021;-80
2022/04/05 02:28:29;;;;;;;;;;;3.80;99.90;;;;;;4983124;28;20021;-79
2022/04/05 02:31:01;;;;;;;;;;;3.80;99.90;;;;;;4967302;28;20285;-79
2022/04/05 02:33:33;;;;;;;;;;;3.80;99.90;;;;;;4977213;28;19935;-79
2022/04/05 02:36:05;;;;;;;;;;;3.80;99.90;;;;;;4967653;28;19926;-79
2022/04/05 02:38:33;;;;;;;;;;;3.80;99.90;;;;;;4991820;28;20037;-79
2022/04/05 02:41:02;;;;;;;;;;;3.80;99.90;;;;;;4967247;28;19930;-79
2022/04/05 02:43:30;;;;;;;;;;;3.80;99.90;;;;;;4986472;28;20025;-78
2022/04/05 02:45:58;;;;;;;;;;;3.80;99.90;;;;;;4967550;28;19926;-78
2022/04/05 02:48:28;;;;;;;;;;;3.80;99.90;;;;;;4982459;28;19953;-78
2022/04/05 02:50:56;;;;;;;;;;;3.80;99.90;;;;;;4976506;28;20288;-78
2022/04/05 02:53:23;;;;;;;;;;;3.80;99.90;;;;;;4987316;28;20011;-78
2022/04/05 02:55:50;;;;;;;;;;;3.80;99.90;;;;;;4967149;28;20436;-78
2022/04/05 02:58:17;;;;;;;;;;;3.80;99.90;;;;;;4963189;28;19972;-80
2022/04/05 03:00:47;;;;;;;;;;;3.80;99.90;;;;;;4978250;28;19932;-79
2022/04/05 03:03:16;;;;;;;;;;;3.80;99.90;;;;;;4966962;28;19935;-78
2022/04/05 03:05:50;;;;;;;;;;;3.80;99.90;;;;;;4982941;28;20017;-79
2022/04/05 03:08:18;;;;;;;;;;;3.70;99.90;;;;;;4960444;28;19930;-79
2022/04/05 03:10:46;;;;;;;;;;;3.80;99.90;;;;;;4964607;28;19932;-79
2022/04/05 03:13:14;;;;;;;;;;;3.70;99.90;;;;;;4974809;28;20377;-80
2022/04/05 03:15:42;;;;;;;;;;;3.70;99.90;;;;;;5005339;28;20432;-81
2022/04/05 03:18:11;;;;;;;;;;;3.70;99.90;;;;;;4970308;28;19926;-79
2022/04/05 03:20:38;;;;;;;;;;;3.70;99.90;;;;;;4982668;28;19926;-79
2022/04/05 03:23:07;;;;;;;;;;;3.70;99.90;;;;;;4967222;28;19938;-79
2022/04/05 03:25:34;;;;;;;;;;;3.70;99.90;;;;;;4963048;28;20438;-79
2022/04/05 03:28:01;;;;;;;;;;;3.70;99.90;;;;;;4963643;28;19933;-79
2022/04/05 03:30:29;;;;;;;;;;;3.70;99.90;;;;;;4963808;28;19926;-81
2022/04/05 03:32:58;;;;;;;;;;;3.70;99.90;;;;;;4967482;28;20434;-80
2022/04/05 03:35:26;;;;;;;;;;;3.70;99.90;;;;;;4966338;28;19926;-79
2022/04/05 03:37:54;;;;;;;;;;;3.70;99.90;;;;;;4980639;28;20021;-79
2022/04/05 03:40:23;;;;;;;;;;;3.70;99.90;;;;;;4962104;28;19979;-79
2022/04/05 03:42:50;;;;;;;;;;;3.70;99.90;;;;;;4983666;28;19926;-79
2022/04/05 03:45:17;;;;;;;;;;;3.70;99.90;;;;;;4964523;28;19934;-81
2022/04/05 03:47:44;;;;;;;;;;;3.70;99.90;;;;;;4969438;28;19930;-79
2022/04/05 03:50:14;;;;;;;;;;;3.70;99.90;;;;;;4957237;28;20009;-79
2022/04/05 03:52:44;;;;;;;;;;;3.70;99.90;;;;;;4991751;28;20323;-79
2022/04/05 03:55:14;;;;;;;;;;;3.70;99.90;;;;;;4965844;28;19993;-81
2022/04/05 03:57:48;;;;;;;;;;;3.70;99.90;;;;;;4964971;28;19949;-79
2022/04/05 04:00:17;;;;;;;;;;;3.70;99.90;;;;;;4985046;28;19962;-79
2022/04/05 04:02:51;;;;;;;;;;;3.70;99.90;;;;;;4981579;28;19926;-79
2022/04/05 04:05:20;;;;;;;;;;;3.70;99.90;;;;;;4969971;28;20384;-79
2022/04/05 04:07:49;;;;;;;;;;;3.70;99.90;;;;;;4977864;28;19987;-80
2022/04/05 04:10:18;;;;;;;;;;;3.70;99.90;;;;;;4963240;28;19926;-80
2022/04/05 04:12:45;;;;;;;;;;;3.70;99.90;;;;;;4984845;28;19941;-80
2022/04/05 04:15:14;;;;;;;;;;;3.70;99.90;;;;;;4973374;28;19926;-80
2022/04/05 04:17:42;;;;;;;;;;;3.70;99.90;;;;;;4988971;28;20403;-79
2022/04/05 04:20:09;;;;;;;;;;;3.70;99.90;;;;;;4979936;28;19926;-80
2022/04/05 04:22:39;;;;;;;;;;;3.70;99.90;;;;;;4944615;28;19926;-79
2022/04/05 04:25:06;;;;;;;;;;;3.70;99.90;;;;;;4960794;28;20021;-79
2022/04/05 04:27:34;;;;;;;;;;;3.70;99.90;;;;;;4976251;28;19934;-79
2022/04/05 04:30:01;;;;;;;;;;;3.70;99.90;;;;;;4966000;28;19976;-80
2022/04/05 04:32:29;;;;;;;;;;;3.70;99.90;;;;;;4962638;28;20333;-80
2022/04/05 04:34:56;;;;;;;;;;;3.70;99.90;;;;;;4972669;28;20310;-81
2022/04/05 04:37:23;;;;;;;;;;;3.70;99.90;;;;;;4972772;28;19931;-81
2022/04/05 04:39:51;;;;;;;;;;;3.60;99.90;;;;;;4981014;28;19934;-80
2022/04/05 04:42:17;;;;;;;;;;;3.60;99.90;;;;;;4970892;28;19934;-79
2022/04/05 04:44:44;;;;;;;;;;;3.60;99.90;;;;;;4998789;28;19934;-81
2022/04/05 04:47:11;;;;;;;;;;;3.60;99.90;;;;;;4967205;28;19994;-80
2022/04/05 04:49:39;;;;;;;;;;;3.60;99.90;;;;;;4976000;28;19926;-80
2022/04/05 04:52:08;;;;;;;;;;;3.60;99.90;;;;;;4967578;28;20365;-81
2022/04/05 04:54:35;;;;;;;;;;;3.60;99.90;;;;;;4967155;28;19938;-81
2022/04/05 04:57:02;;;;;;;;;;;3.60;99.90;;;;;;4979437;28;20021;-82
2022/04/05 04:59:29;;;;;;;;;;;3.60;99.90;;;;;;4974014;28;19969;-80
2022/04/05 05:01:56;;;;;;;;;;;3.70;99.90;;;;;;5002861;28;20362;-81
2022/04/05 05:04:22;;;;;;;;;;;3.60;99.90;;;;;;4967336;28;20404;-79
2022/04/05 05:06:51;;;;;;;;;;;3.60;99.90;;;;;;4970757;28;19965;-79
2022/04/05 05:09:18;;;;;;;;;;;3.60;99.90;;;;;;4974215;28;20372;-80
2022/04/05 05:11:45;;;;;;;;;;;3.60;99.90;;;;;;4960469;28;20419;-80
2022/04/05 05:14:12;;;;;;;;;;;3.50;99.90;;;;;;4976264;28;20310;-80
2022/04/05 05:16:39;;;;;;;;;;;;;;;;;;4962609;28;20005;-79
2022/04/05 05:19:06;;;;;;;;;;;3.40;99.90;;;;;;4964514;28;20277;-79
2022/04/05 05:21:32;;;;;;;;;;;3.50;99.90;;;;;;4976999;28;20309;-79
2022/04/05 05:24:01;;;;;;;;;;;3.60;99.90;;;;;;4960839;28;19966;-79
2022/04/05 05:26:27;;;;;;;;;;;3.60;99.90;;;;;;4958012;28;20336;-79
2022/04/05 05:28:54;;;;;;;;;;;2.30;99.90;;;;;;4958976;28;20021;-77
2022/04/05 05:31:21;;;;;;;;;;;3.60;99.90;;;;;;4969847;28;20021;-77
2022/04/05 05:33:48;;;;;;;;;;;;;;;;;;4971069;28;19926;-77
2022/04/05 05:36:15;;;;;;;;;;;3.50;99.90;;;;;;4959894;28;19957;-77
2022/04/05 05:38:42;;;;;;;;;;;3.60;99.90;;;;;;4968269;28;19930;-78
2022/04/05 05:41:10;;;;;;;;;;;3.50;99.90;;;;;;4964672;28;19926;-78
2022/04/05 05:43:38;;;;;;;;;;;3.50;99.90;;;;;;4963754;28;19930;-77
2022/04/05 05:46:06;;;;;;;;;;;3.50;99.90;;;;;;4963914;28;20636;-78
2022/04/05 05:48:33;;;;;;;;;;;3.50;99.90;;;;;;4977573;28;19926;-77
2022/04/05 05:51:00;;;;;;;;;;;3.50;99.90;;;;;;4979298;28;19969;-79
2022/04/05 05:53:28;;;;;;;;;;;3.50;99.90;;;;;;4968383;28;20455;-78
2022/04/05 05:55:55;;;;;;;;;;;3.50;99.90;;;;;;4959178;28;19961;-78
2022/04/05 05:58:23;;;;;;;;;;;3.50;99.90;;;;;;4993250;28;19957;-78
2022/04/05 06:00:51;;;;;;;;;;;3.50;99.90;;;;;;4969841;28;19926;-77
2022/04/05 06:03:17;;;;;;;;;;;3.50;99.90;;;;;;4968931;28;19930;-76
2022/04/05 06:05:46;;;;;;;;;;;3.50;99.90;;;;;;4959866;28;20122;-76
2022/04/05 06:08:13;;;;;;;;;;;3.50;99.90;;;;;;4963964;28;20408;-77
2022/04/05 06:10:40;;;;;;;;;;;3.50;99.90;;;;;;4954009;28;19962;-78
2022/04/05 06:13:07;;;;;;;;;;;3.50;99.90;;;;;;4959936;28;19926;-77
2022/04/05 06:15:35;;;;;;;;;;;3.50;99.90;;;;;;4975791;28;19933;-76
2022/04/05 06:18:02;;;;;;;;;;;3.50;99.90;;;;;;4955297;28;20319;-78
2022/04/05 06:20:29;;;;;;;;;;;3.50;99.90;;;;;;4959484;28;20021;-79
2022/04/05 06:22:58;;;;;;;;;;;3.50;99.90;;;;;;4968875;28;19930;-77
2022/04/05 06:25:27;;;;;;;;;;;3.50;99.90;;;;;;4958947;28;19984;-78
2022/04/05 06:27:53;;;;;;;;;;;3.60;99.90;;;;;;4969613;28;19930;-77
2022/04/05 06:30:20;;;;;;;;;;;3.50;99.90;;;;;;5017902;28;19932;-78
2022/04/05 06:32:50;;;;;;;;;;;3.50;99.90;;;;;;4956407;28;19976;-77
2022/04/05 06:35:17;;;;;;;;;;;3.50;99.90;;;;;;4953670;28;19981;-78
2022/04/05 06:37:45;;;;;;;;;;;3.50;99.90;;;;;;4961022;28;19926;-78
2022/04/05 06:40:13;;;;;;;;;;;3.50;99.90;;;;;;4966187;28;19931;-78
2022/04/05 06:42:43;;;;;;;;;;;3.60;99.90;;;;;;4971997;28;19927;-77
2022/04/05 06:45:13;;;;;;;;;;;3.60;99.90;;;;;;4971567;28;19948;-77
2022/04/05 06:47:40;;;;;;;;;;;3.60;99.90;;;;;;4965329;28;19926;-78
2022/04/05 06:50:11;;;;;;;;;;;3.50;99.90;;;;;;4959779;28;19966;-78
2022/04/05 06:52:38;;;;;;;;;;;3.50;99.90;;;;;;4971374;28;20024;-77
2022/04/05 06:55:05;;;;;;;;;;;3.60;99.90;;;;;;5112535;22;19990;-76
2022/04/05 06:57:32;;;;;;;;;;;3.50;99.90;;;;;;5063222;28;19924;-77
2022/04/05 06:59:59;;;;;;;;;;;3.60;99.90;;;;;;5070136;28;19986;-76
2022/04/05 07:02:26;;;;;;;;;;;3.50;99.90;;;;;;5068103;28;20007;-76
2022/04/05 07:04:53;;;;;;;;;;;3.50;99.90;;;;;;5051525;28;19941;-77
2022/04/05 07:07:21;;;;;;;;;;;3.60;99.90;;;;;;5070774;28;19928;-76
2022/04/05 07:09:48;;;;;;;;;;;3.60;99.90;;;;;;5068997;28;19993;-76
2022/04/05 07:12:15;;;;;;;;;;;3.60;99.90;;;;;;5043994;28;19929;-76
2022/04/05 07:14:42;;;;;;;;;;;3.60;99.90;;;;;;5069594;28;19947;-76
2022/04/05 07:17:09;;;;;;;;;;;3.60;99.90;;;;;;5070489;28;20345;-76
2022/04/05 07:19:35;;;;;;;;;;;3.60;99.90;;;;;;5052495;28;19924;-76
2022/04/05 07:22:03;;;;;;;;;;;3.60;99.90;;;;;;5049237;28;19931;-75
2022/04/05 07:24:31;;;;;;;;;;;3.60;99.90;;;;;;5070890;28;20426;-77
2022/04/05 07:26:59;;;;;;;;;;;3.60;99.90;;;;;;5067553;28;19925;-76
2022/04/05 07:29:26;;;;;;;;;;;3.60;99.90;;;;;;5068265;28;19924;-77
2022/04/05 07:31:53;;;;;;;;;;;3.60;99.90;;;;;;5074925;28;19913;-77
2022/04/05 07:34:20;;;;;;;;;;;3.60;99.90;;;;;;5078716;28;19975;-77
2022/04/05 07:36:47;;;;;;;;;;;3.60;99.90;;;;;;5076608;28;19925;-76
2022/04/05 07:39:14;;;;;;;;;;;3.60;99.90;;;;;;5042597;28;19928;-76
2022/04/05 07:41:42;;;;;;;;;;;3.70;99.90;;;;;;5069976;28;20251;-76
2022/04/05 07:44:09;;;;;;;;;;;3.60;99.90;;;;;;5071021;28;19970;-77
2022/04/05 07:46:36;;;;;;;;;;;3.70;99.90;;;;;;5050577;28;19929;-76
2022/04/05 07:49:03;;;;;;;;;;;3.70;99.90;;;;;;5073187;28;19931;-76
2022/04/05 07:51:30;;;;;;;;;;;3.70;99.90;;;;;;5063326;28;19995;-77
2022/04/05 07:53:57;;;;;;;;;;;3.70;99.90;;;;;;5065209;28;19963;-77
2022/04/05 07:56:23;;;;;;;;;;;3.70;99.90;;;;;;5053451;28;19975;-76
2022/04/05 07:58:52;;;;;;;;;;;3.70;99.90;;;;;;5070625;28;20003;-77
2022/04/05 08:01:19;;;;;;;;;;;3.70;99.90;;;;;;5070236;28;19983;-76
2022/04/05 08:03:46;;;;;;;;;;;3.70;99.90;;;;;;5049230;28;20015;-76
2022/04/05 08:06:13;;;;;;;;;;;3.70;99.90;;;;;;5068092;28;19928;-76
2022/04/05 08:08:39;;;;;;;;;;;3.70;99.90;;;;;;5052869;28;19935;-76
2022/04/05 08:11:06;;;;;;;;;;;3.80;99.90;;;;;;5073554;28;19986;-76
2022/04/05 08:13:33;;;;;;;;;;;3.70;99.90;;;;;;5073408;28;19931;-76
2022/04/05 08:16:01;;;;;;;;;;;3.80;99.90;;;;;;5077835;28;21230;-76
2022/04/05 08:18:28;;;;;;;;;;;3.80;99.90;;;;;;5042598;28;20106;-76
2022/04/05 08:20:55;;;;;;;;;;;3.80;99.90;;;;;;5056926;28;19933;-76
2022/04/05 08:23:22;;;;;;;;;;;3.80;99.90;;;;;;5067621;28;20026;-77
2022/04/05 08:25:49;;;;;;;;;;;3.80;99.90;;;;;;5064138;28;19924;-77
2022/04/05 08:28:16;;;;;;;;;;;3.80;99.90;;;;;;5049423;28;19925;-78
2022/04/05 08:30:43;;;;;;;;;;;3.90;99.90;;;;;;5067524;28;19924;-77
2022/04/05 08:33:11;;;;;;;;;;;3.80;99.90;;;;;;5065320;28;19932;-77
2022/04/05 08:35:39;;;;;;;;;;;3.90;99.90;;;;;;5047637;28;20004;-78
2022/04/05 08:38:07;;;;;;;;;;;3.90;99.90;;;;;;5060962;28;20028;-79
2022/04/05 08:40:34;;;;;;;;;;;4.00;99.90;;;;;;5072412;28;20015;-79
2022/04/05 08:43:00;;;;;;;;;;;4.00;99.90;;;;;;5073262;28;19924;-78
2022/04/05 08:45:28;;;;;;;;;;;4.00;99.90;;;;;;5068713;28;19971;-78
2022/04/05 08:47:56;;;;;;;;;;;4.00;99.90;;;;;;5069869;28;20036;-78
2022/04/05 08:50:25;;;;;;;;;;;4.00;99.90;;;;;;5070731;28;19976;-78
2022/04/05 08:52:54;;;;;;;;;;;4.10;99.90;;;;;;5071535;28;19993;-78
2022/04/05 08:55:21;;;;;;;;;;;4.10;99.90;;;;;;5074308;28;19925;-78
2022/04/05 08:57:48;;;;;;;;;;;4.20;99.90;;;;;;5072284;28;19936;-78
2022/04/05 09:00:15;;;;;;;;;;;4.20;99.90;;;;;;5052381;28;19925;-78
2022/04/05 09:02:52;;;;;;;;;;;4.20;99.90;;;;;;5055900;28;19925;-78
2022/04/05 09:05:28;;;;;;;;;;;4.20;99.90;;;;;;5070395;28;19924;-78
2022/04/05 09:07:54;;;;;;;;;;;4.30;99.90;;;;;;5074293;28;19964;-78
2022/04/05 09:10:21;;;;;;;;;;;4.30;99.90;;;;;;5051442;28;19931;-79
2022/04/05 09:12:49;;;;;;;;;;;4.40;99.90;;;;;;5063718;28;20357;-78
2022/04/05 09:15:26;;;;;;;;;;;4.40;99.90;;;;;;5066714;28;19966;-79
2022/04/05 09:17:53;;;;;;;;;;;4.40;99.90;;;;;;5073406;28;19990;-79
2022/04/05 09:20:24;;;;;;;;;;;4.50;99.90;;;;;;5061996;28;19924;-78
2022/04/05 09:22:54;;;;;;;;;;;4.50;99.90;;;;;;5054725;28;19924;-79
2022/04/05 09:25:21;;;;;;;;;;;4.50;99.90;;;;;;5074933;28;19924;-78
2022/04/05 09:27:49;;;;;;;;;;;4.50;99.90;;;;;;5068509;28;19939;-78
2022/04/05 09:30:17;;;;;;;;;;;4.50;99.90;;;;;;5068898;28;19925;-78
2022/04/05 09:32:47;;;;;;;;;;;4.60;99.90;;;;;;5067692;28;19925;-78
2022/04/05 09:35:15;;;;;;;;;;;4.60;99.90;;;;;;5070224;28;20031;-79
2022/04/05 09:37:42;;;;;;;;;;;4.60;99.90;;;;;;5068874;28;19986;-78
2022/04/05 09:40:21;;;;;;;;;;;4.60;99.90;;;;;;5067392;28;19936;-78
2022/04/05 09:43:00;;;;;;;;;;;4.70;99.90;;;;;;5067677;28;19952;-78
2022/04/05 09:45:42;;;;;;;;;;;4.70;99.90;;;;;;5074102;28;20448;-78
2022/04/05 09:48:09;;;;;;;;;;;4.70;99.90;;;;;;5064986;28;20383;-78
2022/04/05 09:50:55;;;;;;;;;;;4.70;99.90;;;;;;5067531;28;19974;-77
2022/04/05 09:53:22;;;;;;;;;;;4.80;99.90;;;;;;5065328;28;19936;-78
2022/04/05 09:56:01;;;;;;;;;;;4.80;99.90;;;;;;5065112;28;19924;-79
2022/04/05 09:58:28;;;;;;;;;;;4.90;99.90;;;;;;5066359;28;19979;-79
2022/04/05 10:01:03;;;;;;;;;;;4.90;99.90;;;;;;5047323;28;19925;-79
2022/04/05 10:03:30;;;;;;;;;;;4.90;99.90;;;;;;5070487;28;19931;-79
2022/04/05 10:05:56;;;;;;;;;;;4.90;99.90;;;;;;5069425;28;20332;-80
2022/04/05 10:08:23;;;;;;;;;;;4.90;99.90;;;;;;5059549;28;19928;-79
2022/04/05 10:10:52;;;;;;;;;;;4.90;99.90;;;;;;5064742;28;20019;-79
2022/04/05 10:13:19;;;;;;;;;;;5.00;99.90;;;;;;5058742;28;19982;-80
2022/04/05 10:15:48;;;;;;;;;;;5.00;99.90;;;;;;5050059;28;19924;-79
2022/04/05 10:18:16;;;;;;;;;;;5.00;99.90;;;;;;5066263;28;19925;-79
2022/04/05 10:20:43;;;;;;;;;;;5.10;99.90;;;;;;5073674;28;19924;-79
2022/04/05 10:23:10;;;;;;;;;;;5.10;99.90;;;;;;5067489;28;19970;-79
2022/04/05 10:25:39;;;;;;;;;;;5.10;99.90;;;;;;5049737;28;19936;-79
2022/04/05 10:28:07;;;;;;;;;;;5.10;99.90;;;;;;5051091;28;19928;-79
2022/04/05 10:30:38;;;;;;;;;;;5.20;99.90;;;;;;5066793;28;19932;-79
2022/04/05 10:33:08;;;;;;;;;;;5.20;99.90;;;;;;5050997;28;19933;-79
2022/04/05 10:35:39;;;;;;;;;;;5.20;99.90;;;;;;5069284;28;19947;-78
2022/04/05 10:38:13;;;;;;;;;;;5.30;99.90;;;;;;5064105;28;20313;-79
2022/04/05 10:40:40;;;;;;;;;;;5.30;99.90;;;;;;5054341;28;19947;-78
2022/04/05 10:43:18;;;;;;;;;;;5.30;99.90;;;;;;5047934;28;19947;-78
2022/04/05 10:45:45;;;;;;;;;;;5.30;99.90;;;;;;5062034;28;20394;-78
2022/04/05 10:48:13;;;;;;;;;;;5.40;99.90;;;;;;5066037;28;20394;-78
2022/04/05 10:50:41;;;;;;;;;;;5.40;99.90;;;;;;5076644;28;19929;-79
2022/04/05 10:53:13;;;;;;;;;;;5.40;99.90;;;;;;5067308;28;20027;-79
2022/04/05 10:55:58;;;;;;;;;;;5.50;99.90;;;;;;5069380;28;19932;-79
2022/04/05 10:58:26;;;;;;;;;;;5.50;99.90;;;;;;5054540;28;19985;-78
2022/04/05 11:01:12;;;;;;;;;;;5.50;99.90;;;;;;5065995;28;19956;-79
2022/04/05 11:03:39;;;;;;;;;;;5.60;99.90;;;;;;5070239;28;20433;-78
2022/04/05 11:06:06;;;;;;;;;;;5.60;99.90;;;;;;5074450;28;19944;-79
2022/04/05 11:08:34;;;;;;;;;;;5.60;99.90;;;;;;5067425;28;19924;-78
2022/04/05 11:11:01;;;;;;;;;;;5.60;99.90;;;;;;5053636;28;19925;-79
2022/04/05 11:13:34;;;;;;;;;;;5.60;99.90;;;;;;5068350;28;20015;-79
2022/04/05 11:16:01;;;;;;;;;;;5.60;99.90;;;;;;5083254;28;19931;-78
2022/04/05 11:18:29;;;;;;;;;;;5.70;99.90;;;;;;5052392;28;19924;-79
2022/04/05 11:20:58;;;;;;;;;;;5.70;99.90;;;;;;5050127;28;20370;-79
2022/04/05 11:23:41;;;;;;;;;;;5.70;99.90;;;;;;5074842;28;19925;-80
2022/04/05 11:26:25;;;;;;;;;;;5.80;99.90;;;;;;5077569;28;20422;-77
2022/04/05 11:28:54;;;;;;;;;;;5.80;99.90;;;;;;5066352;28;20019;-77
2022/04/05 11:31:27;;;;;;;;;;;5.80;99.90;;;;;;5053292;28;20381;-77
2022/04/05 11:33:57;;;;;;;;;;;5.90;99.90;;;;;;5065981;28;19925;-77
2022/04/05 11:36:25;;;;;;;;;;;5.90;99.90;;;;;;5062118;28;19925;-78
2022/04/05 11:38:54;;;;;;;;;;;6.00;99.90;;;;;;5056256;28;19993;-78
2022/04/05 11:41:21;;;;;;;;;;;6.00;99.90;;;;;;5070636;28;19924;-78
2022/04/05 11:43:50;;;;;;;;;;;6.00;99.90;;;;;;5067571;28;19924;-78
2022/04/05 11:46:19;;;;;;;;;;;6.10;99.90;;;;;;5070079;28;20586;-79
2022/04/05 11:48:47;;;;;;;;;;;6.10;99.90;;;;;;5049482;28;19924;-79
2022/04/05 11:51:15;;;;;;;;;;;6.20;99.90;;;;;;5066872;28;19928;-78
2022/04/05 11:53:42;;;;;;;;;;;6.20;99.90;;;;;;5068114;28;20394;-78
2022/04/05 11:56:17;;;;;;;;;;;6.20;99.90;;;;;;5066706;28;19924;-78
2022/04/05 11:58:46;;;;;;;;;;;6.30;99.90;;;;;;5067949;28;19968;-79
2022/04/05 12:01:14;;;;;;;;;;;6.30;99.90;;;;;;5070313;28;20015;-79
2022/04/05 12:03:44;;;;;;;;;;;6.30;99.90;;;;;;5054744;28;19931;-78
2022/04/05 12:06:10;;;;;;;;;;;6.40;99.90;;;;;;5069765;28;20394;-79
2022/04/05 12:08:37;;;;;;;;;;;6.50;99.90;;;;;;5070576;28;20007;-79
2022/04/05 12:11:05;;;;;;;;;;;6.50;99.90;;;;;;5077418;28;20021;-79
2022/04/05 12:13:34;;;;;;;;;;;6.50;99.90;;;;;;5047168;28;19925;-78
2022/04/05 12:16:01;;;;;;;;;;;6.60;99.90;;;;;;5065994;28;20276;-78
2022/04/05 12:18:28;;;;;;;;;;;6.60;99.90;;;;;;5058345;28;19936;-79
2022/04/05 12:21:01;;;;;;;;;;;6.60;99.90;;;;;;5059975;28;19983;-79
2022/04/05 12:23:32;;;;;;;;;;;6.60;99.90;;;;;;5067714;28;19978;-79
2022/04/05 12:26:06;;;;;;;;;;;6.70;99.90;;;;;;5057147;28;19932;-78
2022/04/05 12:28:33;;;;;;;;;;;6.70;99.90;;;;;;5072291;28;19924;-80
2022/04/05 12:31:12;;;;;;;;;;;6.70;99.90;;;;;;5071862;28;20370;-79
2022/04/05 12:33:40;;;;;;;;;;;6.70;99.90;;;;;;5056650;28;19947;-79
2022/04/05 12:36:17;;;;;;;;;;;6.70;99.90;;;;;;5069361;28;19924;-80
2022/04/05 12:38:45;;;;;;;;;;;6.80;99.90;;;;;;5069088;28;20043;-79
2022/04/05 12:41:16;;;;;;;;;;;6.80;99.90;;;;;;5068349;28;19931;-79
2022/04/05 12:44:03;;;;;;;;;;;6.90;99.90;;;;;;5047699;28;20294;-80
2022/04/05 12:46:37;;;;;;;;;;;6.90;99.90;;;;;;5076231;28;19936;-79
2022/04/05 12:49:14;;;;;;;;;;;6.90;99.90;;;;;;5053374;28;19961;-79
2022/04/05 12:51:43;;;;;;;;;;;6.90;99.90;;;;;;5055452;28;19946;-79
2022/04/05 12:54:23;;;;;;;;;;;7.00;99.90;;;;;;5093044;22;20410;-81
2022/04/05 12:56:50;;;;;;;;;;;7.00;99.90;;;;;;5057574;28;20293;-81
2022/04/05 12:59:25;;;;;;;;;;;7.00;99.90;;;;;;5052582;28;20417;-81
2022/04/05 13:01:53;;;;;;;;;;;7.00;99.90;;;;;;5071123;28;19931;-81
2022/04/05 13:04:22;;;;;;;;;;;7.00;99.90;;;;;;5077367;28;19925;-80
2022/04/05 13:06:53;;;;;;;;;;;7.00;99.90;;;;;;5075288;28;19924;-80
2022/04/05 13:09:27;;;;;;;;;;;7.00;99.90;;;;;;5068997;28;19928;-81
2022/04/05 13:12:07;;;;;;;;;;;7.00;99.90;;;;;;5061571;28;19935;-81
2022/04/05 13:14:33;;;;;;;;;;;7.00;99.90;;;;;;5076039;28;19924;-80
2022/04/05 13:17:01;;;;;;;;;;;7.10;99.90;;;;;;5052957;28;19925;-81
2022/04/05 13:19:27;;;;;;;;;;;7.10;99.90;;;;;;5064572;28;19963;-80
2022/04/05 13:21:56;;;;;;;;;;;7.10;99.90;;;;;;5078162;28;19925;-81
2022/04/05 13:24:25;;;;;;;;;;;7.10;99.90;;;;;;5075663;28;19940;-81
2022/04/05 13:26:53;;;;;;;;;;;7.10;99.90;;;;;;5077597;28;19941;-81
2022/04/05 13:29:21;;;;;;;;;;;7.10;99.90;;;;;;5074717;28;19931;-81
2022/04/05 13:31:50;;;;;;;;;;;7.10;99.90;;;;;;5074841;28;19924;-80
2022/04/05 13:34:17;;;;;;;;;;;7.10;99.90;;;;;;5062278;28;19928;-80
2022/04/05 13:36:44;;;;;;;;;;;7.20;99.90;;;;;;5082574;28;19928;-81
2022/04/05 13:39:13;;;;;;;;;;;7.20;99.90;;;;;;5063284;28;19928;-81
2022/04/05 13:41:40;;;;;;;;;;;7.20;99.90;;;;;;5068720;28;20130;-81
2022/04/05 13:44:08;;;;;;;;;;;7.20;99.90;;;;;;5074964;28;19928;-81
2022/04/05 13:46:36;;;;;;;;;;;7.20;99.90;;;;;;5080210;28;20014;-81
2022/04/05 13:49:04;;;;;;;;;;;7.20;99.90;;;;;;5075738;28;19932;-80
2022/04/05 13:51:31;;;;;;;;;;;7.20;99.90;;;;;;5072341;28;20342;-81
2022/04/05 13:53:58;;;;;;;;;;;7.20;99.90;;;;;;5072290;28;20026;-81
2022/04/05 13:56:27;;;;;;;;;;;7.30;99.90;;;;;;5081266;28;19924;-81
2022/04/05 13:58:55;;;;;;;;;;;7.30;99.90;;;;;;5065067;28;19936;-81
2022/04/05 14:01:22;;;;;;;;;;;7.30;99.90;;;;;;5085029;28;20286;-81
2022/04/05 14:03:49;;;;;;;;;;;7.30;99.90;;;;;;5063747;28;19939;-81
2022/04/05 14:06:16;;;;;;;;;;;7.40;99.90;;;;;;5074845;28;19928;-81
2022/04/05 14:08:44;;;;;;;;;;;7.40;99.90;;;;;;5077627;28;19931;-82
2022/04/05 14:11:10;;;;;;;;;;;7.40;99.90;;;;;;5076931;28;20019;-81
2022/04/05 14:13:52;;;;;;;;;;;7.40;99.90;;;;;;5077132;28;19932;-80
2022/04/05 14:16:21;;;;;;;;;;;7.40;99.90;;;;;;5081262;28;19954;-81
2022/04/05 14:18:50;;;;;;;;;;;7.40;99.90;;;;;;5074662;28;19925;-80
2022/04/05 14:21:17;;;;;;;;;;;7.50;99.90;;;;;;5068377;28;19924;-80
2022/04/05 14:23:44;;;;;;;;;;;7.50;99.90;;;;;;5072322;28;20009;-80
2022/04/05 14:26:12;;;;;;;;;;;7.50;99.90;;;;;;5065896;28;20023;-81
2022/04/05 14:28:40;;;;;;;;;;;7.60;99.90;;;;;;5055462;28;19939;-80
2022/04/05 14:31:09;;;;;;;;;;;7.60;99.90;;;;;;5059979;28;19956;-81
2022/04/05 14:33:38;;;;;;;;;;;7.60;99.90;;;;;;5084159;28;20005;-80
2022/04/05 14:36:05;;;;;;;;;;;7.60;99.90;;;;;;5062187;28;19924;-80
2022/04/05 14:38:32;;;;;;;;;;;7.70;99.90;;;;;;5077732;28;20026;-80